sensor_id;sensor_type;location;lat;lon;timestamp;pressure;altitude;pressure_sealevel;temperature;humidity
10202;BME280;5143;42.584;23.164;2023-04-30T00:02:07;92271.31;;;7.52;100.00
10202;BME280;5143;42.584;23.164;2023-04-30T00:04:34;92275.63;;;7.44;100.00
10202;BME280;5143;42.584;23.164;2023-04-30T00:07:01;92273.19;;;7.31;100.00
10202;BME280;5143;42.584;23.164;2023-04-30T00:09:28;92274.97;;;7.34;100.00
10202;BME280;5143;42.584;23.164;2023-04-30T00:11:55;92268.41;;;7.26;100.00
10202;BME280;5143;42.584;23.164;2023-04-30T00:14:21;92273.00;;;7.20;100.00
10202;BME280;5143;42.584;23.164;2023-04-30T00:16:49;92277.88;;;7.16;100.00
10202;BME280;5143;42.584;23.164;2023-04-30T00:19:16;92270.69;;;7.13;100.00
10202;BME280;5143;42.584;23.164;2023-04-30T00:21:43;92267.00;;;7.01;100.00
10202;BME280;5143;42.584;23.164;2023-04-30T00:24:10;92276.09;;;6.98;100.00
10202;BME280;5143;42.584;23.164;2023-04-30T00:26:36;92276.47;;;6.91;100.00
10202;BME280;5143;42.584;23.164;2023-04-30T00:29:03;92268.56;;;6.79;100.00
10202;BME280;5143;42.584;23.164;2023-04-30T00:31:31;92271.19;;;6.73;100.00
10202;BME280;5143;42.584;23.164;2023-04-30T00:33:59;92265.38;;;6.66;100.00
10202;BME280;5143;42.584;23.164;2023-04-30T00:36:26;92271.34;;;6.55;100.00
10202;BME280;5143;42.584;23.164;2023-04-30T00:38:52;92269.44;;;6.46;100.00
10202;BME280;5143;42.584;23.164;2023-04-30T00:41:20;92273.06;;;6.43;100.00
10202;BME280;5143;42.584;23.164;2023-04-30T00:43:48;92263.78;;;6.35;100.00
10202;BME280;5143;42.584;23.164;2023-04-30T00:46:14;92265.75;;;6.35;100.00
10202;BME280;5143;42.584;23.164;2023-04-30T00:48:41;92264.16;;;6.28;100.00
10202;BME280;5143;42.584;23.164;2023-04-30T00:51:09;92259.72;;;6.16;100.00
10202;BME280;5143;42.584;23.164;2023-04-30T00:53:37;92266.81;;;6.14;100.00
10202;BME280;5143;42.584;23.164;2023-04-30T00:56:05;92265.00;;;6.11;100.00
10202;BME280;5143;42.584;23.164;2023-04-30T00:58:34;92262.19;;;6.05;100.00
10202;BME280;5143;42.584;23.164;2023-04-30T01:01:01;92262.19;;;6.05;100.00
10202;BME280;5143;42.584;23.164;2023-04-30T01:03:28;92254.88;;;5.97;100.00
10202;BME280;5143;42.584;23.164;2023-04-30T01:05:55;92251.47;;;5.87;100.00
10202;BME280;5143;42.584;23.164;2023-04-30T01:08:24;92264.66;;;5.94;100.00
10202;BME280;5143;42.584;23.164;2023-04-30T01:10:55;92257.16;;;5.89;100.00
10202;BME280;5143;42.584;23.164;2023-04-30T01:13:29;92260.63;;;5.89;100.00
10202;BME280;5143;42.584;23.164;2023-04-30T01:16:01;92255.97;;;5.90;100.00
10202;BME280;5143;42.584;23.164;2023-04-30T01:18:39;92253.91;;;5.85;100.00
10202;BME280;5143;42.584;23.164;2023-04-30T01:21:07;92236.78;;;5.70;100.00
10202;BME280;5143;42.584;23.164;2023-04-30T01:23:46;92256.13;;;5.86;100.00
10202;BME280;5143;42.584;23.164;2023-04-30T01:26:28;92248.75;;;5.87;100.00
10202;BME280;5143;42.584;23.164;2023-04-30T01:29:01;92254.63;;;5.85;100.00
10202;BME280;5143;42.584;23.164;2023-04-30T01:31:28;92249.03;;;5.89;100.00
10202;BME280;5143;42.584;23.164;2023-04-30T01:33:55;92248.41;;;5.94;100.00
10202;BME280;5143;42.584;23.164;2023-04-30T01:36:34;92251.19;;;6.09;100.00
10202;BME280;5143;42.584;23.164;2023-04-30T01:39:14;92244.84;;;6.12;100.00
10202;BME280;5143;42.584;23.164;2023-04-30T01:41:50;92242.66;;;6.25;100.00
10202;BME280;5143;42.584;23.164;2023-04-30T01:44:40;92254.00;;;6.38;100.00
10202;BME280;5143;42.584;23.164;2023-04-30T01:47:19;92248.41;;;6.41;100.00
10202;BME280;5143;42.584;23.164;2023-04-30T01:49:56;92250.41;;;6.56;100.00
10202;BME280;5143;42.584;23.164;2023-04-30T01:52:32;92253.97;;;6.62;100.00
10202;BME280;5143;42.584;23.164;2023-04-30T01:55:07;92250.31;;;6.65;100.00
10202;BME280;5143;42.584;23.164;2023-04-30T01:57:39;92249.91;;;6.57;100.00
10202;BME280;5143;42.584;23.164;2023-04-30T02:00:10;92245.53;;;6.60;100.00
10202;BME280;5143;42.584;23.164;2023-04-30T02:02:38;92253.38;;;6.58;100.00
10202;BME280;5143;42.584;23.164;2023-04-30T02:05:06;92242.81;;;6.45;100.00
10202;BME280;5143;42.584;23.164;2023-04-30T02:07:36;92254.03;;;6.52;100.00
10202;BME280;5143;42.584;23.164;2023-04-30T02:10:05;92248.72;;;6.58;100.00
10202;BME280;5143;42.584;23.164;2023-04-30T02:12:32;92252.41;;;6.70;100.00
10202;BME280;5143;42.584;23.164;2023-04-30T02:14:59;92250.44;;;6.70;100.00
10202;BME280;5143;42.584;23.164;2023-04-30T02:17:28;92253.31;;;6.81;100.00
10202;BME280;5143;42.584;23.164;2023-04-30T02:19:54;92252.69;;;6.86;100.00
10202;BME280;5143;42.584;23.164;2023-04-30T02:22:21;92246.13;;;6.93;100.00
10202;BME280;5143;42.584;23.164;2023-04-30T02:24:48;92243.91;;;6.91;100.00
10202;BME280;5143;42.584;23.164;2023-04-30T02:27:15;92239.03;;;6.95;100.00
10202;BME280;5143;42.584;23.164;2023-04-30T02:29:42;92247.09;;;7.04;100.00
10202;BME280;5143;42.584;23.164;2023-04-30T02:32:09;92250.28;;;7.03;100.00
10202;BME280;5143;42.584;23.164;2023-04-30T02:34:37;92248.38;;;7.09;100.00
10202;BME280;5143;42.584;23.164;2023-04-30T02:37:04;92234.19;;;7.14;100.00
10202;BME280;5143;42.584;23.164;2023-04-30T02:39:30;92233.78;;;7.21;100.00
10202;BME280;5143;42.584;23.164;2023-04-30T02:41:57;92238.84;;;7.28;100.00
10202;BME280;5143;42.584;23.164;2023-04-30T02:44:24;92249.88;;;7.39;100.00
10202;BME280;5143;42.584;23.164;2023-04-30T02:46:51;92249.16;;;7.39;100.00
10202;BME280;5143;42.584;23.164;2023-04-30T02:49:17;92245.19;;;7.54;100.00
10202;BME280;5143;42.584;23.164;2023-04-30T02:51:45;92241.31;;;7.61;100.00
10202;BME280;5143;42.584;23.164;2023-04-30T02:54:12;92247.59;;;7.67;100.00
10202;BME280;5143;42.584;23.164;2023-04-30T02:56:39;92248.34;;;7.67;100.00
10202;BME280;5143;42.584;23.164;2023-04-30T02:59:06;92253.78;;;7.67;100.00
10202;BME280;5143;42.584;23.164;2023-04-30T03:01:32;92247.13;;;7.68;100.00
10202;BME280;5143;42.584;23.164;2023-04-30T03:03:59;92253.78;;;7.67;100.00
10202;BME280;5143;42.584;23.164;2023-04-30T03:06:28;92227.78;;;7.46;100.00
10202;BME280;5143;42.584;23.164;2023-04-30T03:08:57;92250.69;;;7.60;100.00
10202;BME280;5143;42.584;23.164;2023-04-30T03:11:24;92253.69;;;7.62;100.00
10202;BME280;5143;42.584;23.164;2023-04-30T03:13:51;92258.84;;;7.60;100.00
10202;BME280;5143;42.584;23.164;2023-04-30T03:16:18;92252.66;;;7.59;100.00
10202;BME280;5143;42.584;23.164;2023-04-30T03:18:46;92252.56;;;7.68;100.00
10202;BME280;5143;42.584;23.164;2023-04-30T03:21:13;92257.78;;;7.72;100.00
10202;BME280;5143;42.584;23.164;2023-04-30T03:23:40;92263.97;;;7.72;100.00
10202;BME280;5143;42.584;23.164;2023-04-30T03:26:08;92268.00;;;7.77;100.00
10202;BME280;5143;42.584;23.164;2023-04-30T03:28:35;92264.41;;;7.86;100.00
10202;BME280;5143;42.584;23.164;2023-04-30T03:31:01;92255.44;;;7.80;100.00
10202;BME280;5143;42.584;23.164;2023-04-30T03:33:29;92254.28;;;7.86;100.00
10202;BME280;5143;42.584;23.164;2023-04-30T03:35:56;92268.97;;;7.94;100.00
10202;BME280;5143;42.584;23.164;2023-04-30T03:38:23;92270.00;;;7.97;100.00
10202;BME280;5143;42.584;23.164;2023-04-30T03:40:50;92265.44;;;7.88;100.00
10202;BME280;5143;42.584;23.164;2023-04-30T03:43:18;92272.63;;;7.91;100.00
10202;BME280;5143;42.584;23.164;2023-04-30T03:45:45;92275.84;;;7.90;100.00
10202;BME280;5143;42.584;23.164;2023-04-30T03:48:12;92274.03;;;8.01;100.00
10202;BME280;5143;42.584;23.164;2023-04-30T03:50:39;92287.28;;;8.14;100.00
10202;BME280;5143;42.584;23.164;2023-04-30T03:53:06;92288.13;;;8.20;100.00
10202;BME280;5143;42.584;23.164;2023-04-30T03:55:32;92295.91;;;8.27;100.00
10202;BME280;5143;42.584;23.164;2023-04-30T03:58:00;92294.75;;;8.34;100.00
10202;BME280;5143;42.584;23.164;2023-04-30T04:00:28;92295.59;;;8.40;100.00
10202;BME280;5143;42.584;23.164;2023-04-30T04:02:56;92290.50;;;8.47;100.00
10202;BME280;5143;42.584;23.164;2023-04-30T04:05:23;92298.78;;;8.58;100.00
10202;BME280;5143;42.584;23.164;2023-04-30T04:07:50;92292.41;;;8.61;100.00
10202;BME280;5143;42.584;23.164;2023-04-30T04:10:17;92298.78;;;8.58;100.00
10202;BME280;5143;42.584;23.164;2023-04-30T04:12:44;92303.09;;;8.65;100.00
10202;BME280;5143;42.584;23.164;2023-04-30T04:15:11;92305.88;;;8.70;100.00
10202;BME280;5143;42.584;23.164;2023-04-30T04:17:39;92296.53;;;8.77;100.00
10202;BME280;5143;42.584;23.164;2023-04-30T04:20:07;92305.31;;;8.86;100.00
10202;BME280;5143;42.584;23.164;2023-04-30T04:22:34;92308.72;;;8.81;100.00
10202;BME280;5143;42.584;23.164;2023-04-30T04:25:01;92304.00;;;8.82;100.00
10202;BME280;5143;42.584;23.164;2023-04-30T04:27:27;92307.53;;;8.88;100.00
10202;BME280;5143;42.584;23.164;2023-04-30T04:29:54;92313.66;;;9.03;100.00
10202;BME280;5143;42.584;23.164;2023-04-30T04:32:21;92311.28;;;9.11;100.00
10202;BME280;5143;42.584;23.164;2023-04-30T04:34:50;92309.41;;;9.22;100.00
10202;BME280;5143;42.584;23.164;2023-04-30T04:37:18;92309.13;;;9.20;100.00
10202;BME280;5143;42.584;23.164;2023-04-30T04:39:45;92320.75;;;9.41;100.00
10202;BME280;5143;42.584;23.164;2023-04-30T04:42:12;92323.06;;;9.54;100.00
10202;BME280;5143;42.584;23.164;2023-04-30T04:44:39;92322.63;;;9.55;100.00
10202;BME280;5143;42.584;23.164;2023-04-30T04:47:06;92330.88;;;9.66;100.00
10202;BME280;5143;42.584;23.164;2023-04-30T04:49:32;92333.44;;;9.75;100.00
10202;BME280;5143;42.584;23.164;2023-04-30T04:52:01;92334.78;;;9.85;100.00
10202;BME280;5143;42.584;23.164;2023-04-30T04:54:28;92346.38;;;9.80;100.00
10202;BME280;5143;42.584;23.164;2023-04-30T04:56:54;92349.38;;;9.82;100.00
10202;BME280;5143;42.584;23.164;2023-04-30T04:59:21;92344.44;;;9.86;100.00
10202;BME280;5143;42.584;23.164;2023-04-30T05:01:48;92347.78;;;10.01;100.00
10202;BME280;5143;42.584;23.164;2023-04-30T05:04:15;92347.03;;;10.01;100.00
10202;BME280;5143;42.584;23.164;2023-04-30T05:06:41;92344.72;;;10.20;100.00
10202;BME280;5143;42.584;23.164;2023-04-30T05:09:09;92341.22;;;10.50;100.00
10202;BME280;5143;42.584;23.164;2023-04-30T05:11:36;92339.03;;;10.60;100.00
10202;BME280;5143;42.584;23.164;2023-04-30T05:14:03;92345.88;;;10.87;100.00
10202;BME280;5143;42.584;23.164;2023-04-30T05:16:30;92354.53;;;10.85;100.00
10202;BME280;5143;42.584;23.164;2023-04-30T05:18:57;92354.00;;;10.76;100.00
10202;BME280;5143;42.584;23.164;2023-04-30T05:21:23;92350.34;;;10.90;100.00
10202;BME280;5143;42.584;23.164;2023-04-30T05:23:53;92353.88;;;10.96;100.00
10202;BME280;5143;42.584;23.164;2023-04-30T05:26:22;92357.69;;;11.20;100.00
10202;BME280;5143;42.584;23.164;2023-04-30T05:28:48;92367.19;;;11.42;100.00
10202;BME280;5143;42.584;23.164;2023-04-30T05:31:16;92355.00;;;11.43;100.00
10202;BME280;5143;42.584;23.164;2023-04-30T05:33:43;92361.28;;;11.60;100.00
10202;BME280;5143;42.584;23.164;2023-04-30T05:36:10;92355.41;;;11.89;100.00
10202;BME280;5143;42.584;23.164;2023-04-30T05:38:37;92353.38;;;11.84;100.00
10202;BME280;5143;42.584;23.164;2023-04-30T05:41:04;92364.34;;;12.06;100.00
10202;BME280;5143;42.584;23.164;2023-04-30T05:43:32;92359.88;;;12.25;100.00
10202;BME280;5143;42.584;23.164;2023-04-30T05:45:59;92360.88;;;12.39;100.00
10202;BME280;5143;42.584;23.164;2023-04-30T05:48:25;92361.59;;;12.45;100.00
10202;BME280;5143;42.584;23.164;2023-04-30T05:50:52;92354.59;;;12.77;100.00
10202;BME280;5143;42.584;23.164;2023-04-30T05:53:19;92354.09;;;12.84;100.00
10202;BME280;5143;42.584;23.164;2023-04-30T05:55:46;92366.44;;;13.19;100.00
10202;BME280;5143;42.584;23.164;2023-04-30T05:58:13;92372.88;;;13.32;100.00
10202;BME280;5143;42.584;23.164;2023-04-30T06:00:41;92372.69;;;13.19;100.00
10202;BME280;5143;42.584;23.164;2023-04-30T06:03:08;92379.38;;;13.35;100.00
10202;BME280;5143;42.584;23.164;2023-04-30T06:05:35;92377.53;;;13.59;100.00
10202;BME280;5143;42.584;23.164;2023-04-30T06:08:01;92385.88;;;13.84;100.00
10202;BME280;5143;42.584;23.164;2023-04-30T06:10:29;92382.28;;;14.00;100.00
10202;BME280;5143;42.584;23.164;2023-04-30T06:12:56;92388.94;;;14.10;100.00
10202;BME280;5143;42.584;23.164;2023-04-30T06:15:23;92390.34;;;13.87;100.00
10202;BME280;5143;42.584;23.164;2023-04-30T06:17:51;92395.75;;;13.98;100.00
10202;BME280;5143;42.584;23.164;2023-04-30T06:20:19;92392.69;;;14.07;100.00
10202;BME280;5143;42.584;23.164;2023-04-30T06:22:46;92392.50;;;13.99;100.00
10202;BME280;5143;42.584;23.164;2023-04-30T06:25:12;92386.31;;;13.88;100.00
10202;BME280;5143;42.584;23.164;2023-04-30T06:27:39;92389.03;;;13.93;100.00
10202;BME280;5143;42.584;23.164;2023-04-30T06:30:07;92398.66;;;14.82;100.00
10202;BME280;5143;42.584;23.164;2023-04-30T06:32:34;92404.81;;;16.72;100.00
10202;BME280;5143;42.584;23.164;2023-04-30T06:35:02;92414.78;;;19.00;68.67
10202;BME280;5143;42.584;23.164;2023-04-30T06:37:29;92418.06;;;20.98;58.80
10202;BME280;5143;42.584;23.164;2023-04-30T06:40:02;92415.75;;;22.18;52.03
10202;BME280;5143;42.584;23.164;2023-04-30T06:42:29;92423.66;;;21.59;50.99
10202;BME280;5143;42.584;23.164;2023-04-30T06:44:58;92412.63;;;20.78;51.60
10202;BME280;5143;42.584;23.164;2023-04-30T06:47:25;92411.63;;;20.45;52.62
10202;BME280;5143;42.584;23.164;2023-04-30T06:49:52;92408.59;;;20.79;50.84
10202;BME280;5143;42.584;23.164;2023-04-30T06:52:20;92429.88;;;23.57;45.91
10202;BME280;5143;42.584;23.164;2023-04-30T06:54:47;92432.47;;;25.72;40.28
10202;BME280;5143;42.584;23.164;2023-04-30T06:57:13;92427.56;;;25.53;34.43
10202;BME280;5143;42.584;23.164;2023-04-30T06:59:40;92427.84;;;25.21;36.03
10202;BME280;5143;42.584;23.164;2023-04-30T07:02:07;92429.53;;;24.46;35.47
10202;BME280;5143;42.584;23.164;2023-04-30T07:04:33;92423.06;;;23.18;37.02
10202;BME280;5143;42.584;23.164;2023-04-30T07:07:00;92423.22;;;22.95;37.24
10202;BME280;5143;42.584;23.164;2023-04-30T07:09:28;92430.88;;;24.89;36.63
10202;BME280;5143;42.584;23.164;2023-04-30T07:11:56;92425.56;;;26.38;33.67
10202;BME280;5143;42.584;23.164;2023-04-30T07:14:23;92430.00;;;25.76;33.41
10202;BME280;5143;42.584;23.164;2023-04-30T07:16:50;92429.41;;;23.85;35.80
10202;BME280;5143;42.584;23.164;2023-04-30T07:19:17;92423.59;;;22.52;38.52
10202;BME280;5143;42.584;23.164;2023-04-30T07:21:43;92425.50;;;21.64;39.88
10202;BME280;5143;42.584;23.164;2023-04-30T07:24:10;92418.06;;;21.06;41.61
10202;BME280;5143;42.584;23.164;2023-04-30T07:26:39;92419.31;;;19.88;42.63
10202;BME280;5143;42.584;23.164;2023-04-30T07:29:06;92414.78;;;19.41;45.32
10202;BME280;5143;42.584;23.164;2023-04-30T07:31:33;92415.94;;;19.05;45.88
10202;BME280;5143;42.584;23.164;2023-04-30T07:34:00;92417.25;;;17.89;47.52
10202;BME280;5143;42.584;23.164;2023-04-30T07:36:26;92412.66;;;16.81;50.75
10202;BME280;5143;42.584;23.164;2023-04-30T07:38:53;92416.22;;;16.63;52.66
10202;BME280;5143;42.584;23.164;2023-04-30T07:41:20;92413.91;;;16.48;52.94
10202;BME280;5143;42.584;23.164;2023-04-30T07:43:48;92410.09;;;16.01;55.25
10202;BME280;5143;42.584;23.164;2023-04-30T07:46:15;92415.06;;;15.65;56.21
10202;BME280;5143;42.584;23.164;2023-04-30T07:48:42;92418.59;;;15.36;58.45
10202;BME280;5143;42.584;23.164;2023-04-30T07:51:09;92425.44;;;15.00;58.89
10202;BME280;5143;42.584;23.164;2023-04-30T07:53:36;92418.25;;;14.67;61.53
10202;BME280;5143;42.584;23.164;2023-04-30T07:56:03;92421.47;;;14.41;65.00
10202;BME280;5143;42.584;23.164;2023-04-30T07:58:30;92416.09;;;14.19;67.12
10202;BME280;5143;42.584;23.164;2023-04-30T08:00:58;92396.72;;;14.06;69.27
10202;BME280;5143;42.584;23.164;2023-04-30T08:03:25;92417.03;;;14.27;72.17
10202;BME280;5143;42.584;23.164;2023-04-30T08:05:52;92422.00;;;14.34;76.61
10202;BME280;5143;42.584;23.164;2023-04-30T08:08:18;92423.19;;;14.44;87.17
10202;BME280;5143;42.584;23.164;2023-04-30T08:10:45;92424.25;;;14.65;75.55
10202;BME280;5143;42.584;23.164;2023-04-30T08:13:12;92433.47;;;14.68;77.94
10202;BME280;5143;42.584;23.164;2023-04-30T08:15:39;92426.50;;;14.67;86.94
10202;BME280;5143;42.584;23.164;2023-04-30T08:18:08;92425.38;;;14.81;91.50
10202;BME280;5143;42.584;23.164;2023-04-30T08:20:35;92429.31;;;15.40;78.15
10202;BME280;5143;42.584;23.164;2023-04-30T08:23:01;92432.41;;;15.98;73.20
10202;BME280;5143;42.584;23.164;2023-04-30T08:25:28;92442.94;;;16.68;71.26
10202;BME280;5143;42.584;23.164;2023-04-30T08:27:55;92428.47;;;17.26;68.34
10202;BME280;5143;42.584;23.164;2023-04-30T08:30:22;92437.72;;;17.94;63.86
10202;BME280;5143;42.584;23.164;2023-04-30T08:32:50;92444.72;;;18.08;58.83
10202;BME280;5143;42.584;23.164;2023-04-30T08:35:18;92440.09;;;18.50;54.16
10202;BME280;5143;42.584;23.164;2023-04-30T08:37:45;92444.06;;;18.96;53.51
10202;BME280;5143;42.584;23.164;2023-04-30T08:40:12;92440.31;;;19.34;53.06
10202;BME280;5143;42.584;23.164;2023-04-30T08:42:45;92432.03;;;19.34;52.52
10202;BME280;5143;42.584;23.164;2023-04-30T08:45:12;92438.47;;;20.14;50.38
10202;BME280;5143;42.584;23.164;2023-04-30T08:47:40;92445.31;;;20.56;51.67
10202;BME280;5143;42.584;23.164;2023-04-30T08:50:07;92441.97;;;21.24;47.56
10202;BME280;5143;42.584;23.164;2023-04-30T08:52:36;92439.56;;;21.66;46.47
10202;BME280;5143;42.584;23.164;2023-04-30T08:55:06;92438.25;;;21.29;46.83
10202;BME280;5143;42.584;23.164;2023-04-30T08:57:34;92441.22;;;21.08;44.68
10202;BME280;5143;42.584;23.164;2023-04-30T09:00:01;92431.94;;;21.06;46.65
10202;BME280;5143;42.584;23.164;2023-04-30T09:02:30;92437.88;;;21.70;44.15
10202;BME280;5143;42.584;23.164;2023-04-30T09:04:57;92436.97;;;21.45;44.92
10202;BME280;5143;42.584;23.164;2023-04-30T09:07:25;92435.28;;;21.65;42.32
10202;BME280;5143;42.584;23.164;2023-04-30T09:09:54;92422.44;;;20.79;44.19
10202;BME280;5143;42.584;23.164;2023-04-30T09:12:22;92426.75;;;20.36;44.42
10202;BME280;5143;42.584;23.164;2023-04-30T09:15:01;92423.16;;;19.85;45.78
10202;BME280;5143;42.584;23.164;2023-04-30T09:17:29;92426.50;;;19.34;47.78
10202;BME280;5143;42.584;23.164;2023-04-30T09:20:06;92413.41;;;19.35;47.25
10202;BME280;5143;42.584;23.164;2023-04-30T09:22:34;92421.50;;;19.12;48.00
10202;BME280;5143;42.584;23.164;2023-04-30T09:25:04;92408.22;;;18.90;49.08
10202;BME280;5143;42.584;23.164;2023-04-30T09:27:30;92412.63;;;18.85;48.28
10202;BME280;5143;42.584;23.164;2023-04-30T09:29:57;92402.00;;;19.18;47.69
10202;BME280;5143;42.584;23.164;2023-04-30T09:32:24;92404.75;;;19.67;46.07
10202;BME280;5143;42.584;23.164;2023-04-30T09:34:51;92405.84;;;19.92;45.71
10202;BME280;5143;42.584;23.164;2023-04-30T09:37:18;92407.06;;;20.19;46.27
10202;BME280;5143;42.584;23.164;2023-04-30T09:39:46;92406.38;;;19.83;46.28
10202;BME280;5143;42.584;23.164;2023-04-30T09:42:15;92397.34;;;19.62;46.76
10202;BME280;5143;42.584;23.164;2023-04-30T09:44:43;92398.28;;;19.15;47.76
10202;BME280;5143;42.584;23.164;2023-04-30T09:47:10;92394.53;;;18.64;47.11
10202;BME280;5143;42.584;23.164;2023-04-30T09:49:40;92388.66;;;18.34;47.95
10202;BME280;5143;42.584;23.164;2023-04-30T09:52:07;92395.28;;;18.31;47.94
10202;BME280;5143;42.584;23.164;2023-04-30T09:54:34;92382.72;;;18.29;48.81
10202;BME280;5143;42.584;23.164;2023-04-30T09:57:01;92385.13;;;17.99;51.47
10202;BME280;5143;42.584;23.164;2023-04-30T09:59:31;92377.34;;;17.77;55.24
10202;BME280;5143;42.584;23.164;2023-04-30T10:02:00;92376.09;;;18.12;54.88
10202;BME280;5143;42.584;23.164;2023-04-30T10:04:29;92384.28;;;18.72;51.95
10202;BME280;5143;42.584;23.164;2023-04-30T10:06:57;92377.88;;;18.98;51.33
10202;BME280;5143;42.584;23.164;2023-04-30T10:09:29;92381.09;;;19.09;50.62
10202;BME280;5143;42.584;23.164;2023-04-30T10:11:59;92367.75;;;19.28;49.72
10202;BME280;5143;42.584;23.164;2023-04-30T10:14:31;92370.94;;;18.83;51.14
10202;BME280;5143;42.584;23.164;2023-04-30T10:17:04;92365.13;;;18.19;51.14
10202;BME280;5143;42.584;23.164;2023-04-30T10:19:35;92364.97;;;17.91;52.20
10202;BME280;5143;42.584;23.164;2023-04-30T10:22:06;92366.31;;;17.25;56.04
10202;BME280;5143;42.584;23.164;2023-04-30T10:24:33;92371.03;;;16.98;59.18
10202;BME280;5143;42.584;23.164;2023-04-30T10:27:00;92365.66;;;17.19;56.30
10202;BME280;5143;42.584;23.164;2023-04-30T10:29:27;92374.56;;;17.38;55.09
10202;BME280;5143;42.584;23.164;2023-04-30T10:31:56;92373.50;;;17.41;55.75
10202;BME280;5143;42.584;23.164;2023-04-30T10:34:30;92372.22;;;17.16;55.73
10202;BME280;5143;42.584;23.164;2023-04-30T10:37:05;92368.81;;;17.09;56.33
10202;BME280;5143;42.584;23.164;2023-04-30T10:39:34;92371.47;;;17.28;57.21
10202;BME280;5143;42.584;23.164;2023-04-30T10:42:03;92367.56;;;17.10;55.00
10202;BME280;5143;42.584;23.164;2023-04-30T10:44:31;92369.47;;;17.16;54.96
10202;BME280;5143;42.584;23.164;2023-04-30T10:47:01;92363.13;;;17.47;56.02
10202;BME280;5143;42.584;23.164;2023-04-30T10:49:28;92371.28;;;17.52;54.20
10202;BME280;5143;42.584;23.164;2023-04-30T10:51:58;92366.50;;;17.53;54.74
10202;BME280;5143;42.584;23.164;2023-04-30T10:54:26;92369.56;;;16.97;55.92
10202;BME280;5143;42.584;23.164;2023-04-30T10:56:54;92378.88;;;16.94;57.25
10202;BME280;5143;42.584;23.164;2023-04-30T10:59:34;92370.97;;;17.17;58.43
10202;BME280;5143;42.584;23.164;2023-04-30T11:02:02;92368.41;;;17.45;56.77
10202;BME280;5143;42.584;23.164;2023-04-30T11:04:29;92371.19;;;17.71;55.30
10202;BME280;5143;42.584;23.164;2023-04-30T11:07:08;92365.19;;;18.27;53.08
10202;BME280;5143;42.584;23.164;2023-04-30T11:09:40;92352.00;;;18.67;52.73
10202;BME280;5143;42.584;23.164;2023-04-30T11:12:12;92353.31;;;18.73;48.70
10202;BME280;5143;42.584;23.164;2023-04-30T11:14:40;92356.03;;;19.15;50.07
10202;BME280;5143;42.584;23.164;2023-04-30T11:17:10;92348.53;;;18.95;47.17
10202;BME280;5143;42.584;23.164;2023-04-30T11:19:47;92350.50;;;18.66;47.39
10202;BME280;5143;42.584;23.164;2023-04-30T11:22:15;92356.31;;;18.42;47.95
10202;BME280;5143;42.584;23.164;2023-04-30T11:24:52;92349.97;;;17.66;49.62
10202;BME280;5143;42.584;23.164;2023-04-30T11:27:20;92343.84;;;18.27;50.94
10202;BME280;5143;42.584;23.164;2023-04-30T11:29:48;92353.00;;;18.56;49.08
10202;BME280;5143;42.584;23.164;2023-04-30T11:32:17;92337.25;;;18.93;49.69
10202;BME280;5143;42.584;23.164;2023-04-30T11:34:45;92345.91;;;19.17;48.07
10202;BME280;5143;42.584;23.164;2023-04-30T11:37:14;92346.44;;;19.36;49.95
10202;BME280;5143;42.584;23.164;2023-04-30T11:39:41;92338.03;;;19.21;49.36
10202;BME280;5143;42.584;23.164;2023-04-30T11:42:08;92342.28;;;19.22;47.71
10202;BME280;5143;42.584;23.164;2023-04-30T11:44:35;92343.56;;;19.21;49.43
10202;BME280;5143;42.584;23.164;2023-04-30T11:47:03;92337.25;;;19.41;46.63
10202;BME280;5143;42.584;23.164;2023-04-30T11:49:31;92344.06;;;19.40;46.63
10202;BME280;5143;42.584;23.164;2023-04-30T11:51:58;92329.59;;;19.98;46.09
10202;BME280;5143;42.584;23.164;2023-04-30T11:54:25;92340.94;;;20.23;45.96
10202;BME280;5143;42.584;23.164;2023-04-30T11:56:51;92343.91;;;20.25;41.94
10202;BME280;5143;42.584;23.164;2023-04-30T11:59:18;92334.56;;;20.00;41.29
10202;BME280;5143;42.584;23.164;2023-04-30T12:01:45;92333.97;;;19.51;44.26
10202;BME280;5143;42.584;23.164;2023-04-30T12:04:12;92340.03;;;18.93;44.77
10202;BME280;5143;42.584;23.164;2023-04-30T12:06:40;92328.03;;;18.49;46.25
10202;BME280;5143;42.584;23.164;2023-04-30T12:09:07;92333.84;;;18.24;47.88
10202;BME280;5143;42.584;23.164;2023-04-30T12:11:37;92343.22;;;18.21;46.90
10202;BME280;5143;42.584;23.164;2023-04-30T12:14:05;92331.31;;;17.93;47.92
10202;BME280;5143;42.584;23.164;2023-04-30T12:16:39;92334.97;;;17.61;49.37
10202;BME280;5143;42.584;23.164;2023-04-30T12:19:06;92337.34;;;17.57;48.55
10202;BME280;5143;42.584;23.164;2023-04-30T12:21:34;92326.81;;;17.43;49.11
10202;BME280;5143;42.584;23.164;2023-04-30T12:24:03;92343.47;;;17.24;49.55
10202;BME280;5143;42.584;23.164;2023-04-30T12:26:36;92326.69;;;17.48;48.78
10202;BME280;5143;42.584;23.164;2023-04-30T12:29:04;92327.88;;;17.66;45.72
10202;BME280;5143;42.584;23.164;2023-04-30T12:31:31;92314.03;;;17.79;46.80
10202;BME280;5143;42.584;23.164;2023-04-30T12:34:02;92319.19;;;17.96;45.70
10202;BME280;5143;42.584;23.164;2023-04-30T12:36:30;92319.78;;;18.36;45.22
10202;BME280;5143;42.584;23.164;2023-04-30T12:39:05;92309.81;;;18.33;45.15
10202;BME280;5143;42.584;23.164;2023-04-30T12:41:35;92312.97;;;17.82;46.25
10202;BME280;5143;42.584;23.164;2023-04-30T12:44:13;92313.75;;;17.43;47.99
10202;BME280;5143;42.584;23.164;2023-04-30T12:46:40;92325.00;;;17.06;46.86
10202;BME280;5143;42.584;23.164;2023-04-30T12:49:07;92341.63;;;16.74;51.59
10202;BME280;5143;42.584;23.164;2023-04-30T12:51:35;92316.16;;;16.23;53.62
10202;BME280;5143;42.584;23.164;2023-04-30T12:54:05;92327.88;;;16.24;54.45
10202;BME280;5143;42.584;23.164;2023-04-30T12:56:32;92321.59;;;16.42;55.70
10202;BME280;5143;42.584;23.164;2023-04-30T12:58:59;92324.34;;;16.42;56.64
10202;BME280;5143;42.584;23.164;2023-04-30T13:01:26;92333.28;;;16.48;56.63
10202;BME280;5143;42.584;23.164;2023-04-30T13:03:53;92338.25;;;16.49;56.20
10202;BME280;5143;42.584;23.164;2023-04-30T13:06:20;92317.63;;;16.24;54.60